首页
METAR-TAF:

METAR-TAF

机场 :

克羅托內, 意大利

纬度: 39-00N, 经度: 017-04E, 海拔: 155米

当前天气观测

该预报发布于10小时和48分钟前的17:50 UTC
风速20节,风向南转西南
温度 19°C
湿度 88%
气压 1010 hPa
能见度10公里或以上
少量云层高于2500英尺

METAR: LIBC 041750Z 20020KT 9999 FEW025 19/17 Q1010

时间: 06:38 (04:38 UTC)

预报

该预报发布于17小时和38分钟前的11:00 UTC
预报有效从04日的 12点(UTC)到 05日的 12点(UTC)
风速18节,风向,有时为28节阵风
能见度10公里或以上
散云层高于3000英尺
成为
从 04日的 18点(UTC)到 04日的 20点(UTC)
风速15节,风向
短暂存在
从 05日的 00点(UTC)到 05日的 12点(UTC)
阵雨

TAF: LIBC 041100Z 0412/0512 19018G28KT 9999 SCT030 BECMG 0418/0420 19015KT TEMPO 0500/0512 SHRA

超过4000个机场的气象观测和天气预报(METAR&TAF报告)。

可查询的气象台以黄色和红色小点在地图上表示。

将鼠标移到小点上方,可查看气象台名称。

然后点击查看天气观测和预报。

如需切换地图:点击带黑十字的绿色按钮放大地图;点击带横线的绿色按钮缩小地图;或者点击绿色箭头查看邻近地区的地图。


METAR-TAF: